CheckWX is a tool to help pilots better visualize weather data.  It is not intended as a substitute for an official pre-flight weather briefing.

08:58:22 UTC

2P2 METAR
Washington Island Airport
Washington Island, Wisconsin, USA
Current

23 mins ago

K2P2 260835Z AUTO 29005KT 10SM OVC037 00/M01 A2977 RMK AO2 T10011012
Observed
Jan-26 @ 08:35 UTC
Wind
  • 290° at 5 KTS
Visibility
10 SM
Flight Rules
VFR
Cloud Levels
  • Overcast at 3,700' AGL
Temperature
-0°C / 32°F
Dewpoint
-1°C / 30°F
Humidity
93%
Altimeter
29.77" Hg
Pressure
1008.12 hPa
Previous

43 mins ago

K2P2 260815Z AUTO 29006KT 10SM OVC033 00/M01 A2977 RMK AO2 T10011012
Observed
Jan-26 @ 08:15 UTC
Wind
  • 290° at 6 KTS
Visibility
10 SM
Flight Rules
VFR
Cloud Levels
  • Overcast at 3,300' AGL
Temperature
-0°C / 32°F
Dewpoint
-1°C / 30°F
Humidity
93%
Altimeter
29.77" Hg
Pressure
1008.12 hPa
Previous

1 hour ago

K2P2 260755Z AUTO 29007KT 10SM OVC033 00/M01 A2977 RMK AO2 T10011011
Observed
Jan-26 @ 07:55 UTC
Wind
  • 290° at 7 KTS
Visibility
10 SM
Flight Rules
VFR
Cloud Levels
  • Overcast at 3,300' AGL
Temperature
-0°C / 32°F
Dewpoint
-1°C / 30°F
Humidity
93%
Altimeter
29.77" Hg
Pressure
1008.12 hPa